createdAt,value
2019-04-21T00:03:09.773Z,1028.38
2019-04-21T00:08:30.427Z,1028.43
2019-04-21T00:13:52.066Z,1028.29
2019-04-21T00:18:08.564Z,1028.38
2019-04-21T00:23:21.277Z,1028.35
2019-04-21T00:33:13.748Z,1028.32
2019-04-21T00:38:24.326Z,1028.29
2019-04-21T00:42:22.572Z,1028.32
2019-04-21T00:53:28.555Z,1028.21
2019-04-21T00:57:32.214Z,1028.16
2019-04-21T01:03:00.744Z,1028.11
2019-04-21T01:07:50.148Z,1028.07
2019-04-21T01:13:15.768Z,1028.11
2019-04-21T01:22:06.863Z,1028.06
2019-04-21T01:31:22.345Z,1028.02
2019-04-21T01:36:49.643Z,1027.97
2019-04-21T01:41:31.175Z,1027.98
2019-04-21T01:46:39.089Z,1027.94
2019-04-21T01:52:43.711Z,1027.9
2019-04-21T01:56:50.892Z,1027.94
2019-04-21T02:00:56.349Z,1027.86
2019-04-21T02:10:54.398Z,1027.85
2019-04-21T02:16:22.581Z,1027.89
2019-04-21T02:39:37.092Z,1027.77
2019-04-21T02:50:17.364Z,1027.77
2019-04-21T03:00:54.655Z,1027.64
2019-04-21T03:05:10.897Z,1027.52
2019-04-21T03:14:15.712Z,1027.45
2019-04-21T03:18:39.355Z,1027.34
2019-04-21T03:39:00.594Z,1027.21
2019-04-21T03:43:26.619Z,1027.16
2019-04-21T03:48:35.250Z,1027.25
2019-04-21T04:02:41.145Z,1027.33
2019-04-21T04:08:31.187Z,1027.42
2019-04-21T04:12:56.840Z,1027.37
2019-04-21T04:19:05.196Z,1027.34
2019-04-21T04:24:03.751Z,1027.31
2019-04-21T04:26:31.248Z,1027.36
2019-04-21T04:32:34.434Z,1027.35
2019-04-21T04:41:41.312Z,1027.43
2019-04-21T04:52:26.995Z,1027.33
2019-04-21T04:56:38.108Z,1027.29
2019-04-21T05:02:27.479Z,1027.28
2019-04-21T05:06:45.718Z,1027.25
2019-04-21T05:11:39.443Z,1027.31
2019-04-21T05:16:51.592Z,1027.19
2019-04-21T05:21:43.731Z,1027.17
2019-04-21T05:25:41.403Z,1027.17
2019-04-21T05:30:33.668Z,1027.19
2019-04-21T05:35:48.768Z,1027.22
2019-04-21T05:40:21.783Z,1027.23
2019-04-21T05:50:16.430Z,1027.18
2019-04-21T05:55:00.621Z,1027.3
2019-04-21T06:00:22.815Z,1027.25
2019-04-21T06:15:00.778Z,1027.14
2019-04-21T06:19:36.427Z,1027.11
2019-04-21T06:24:20.117Z,1027.08
2019-04-21T06:28:56.477Z,1027.12
2019-04-21T06:33:27.228Z,1027.14
2019-04-21T06:39:09.878Z,1027.03
2019-04-21T06:44:31.845Z,1027.1
2019-04-21T06:48:32.511Z,1027.03
2019-04-21T06:54:14.116Z,1027
2019-04-21T06:57:51.330Z,1027.06
2019-04-21T07:12:50.758Z,1026.94
2019-04-21T07:17:44.911Z,1026.9
2019-04-21T07:23:15.285Z,1026.85
2019-04-21T07:27:57.799Z,1026.84
2019-04-21T07:31:31.216Z,1026.86
2019-04-21T07:37:23.679Z,1026.68
2019-04-21T07:41:43.611Z,1026.65
2019-04-21T07:46:57.197Z,1026.66
2019-04-21T07:51:56.230Z,1026.62
2019-04-21T07:56:11.586Z,1026.53
2019-04-21T08:05:24.651Z,1026.48
2019-04-21T08:15:50.604Z,1026.37
2019-04-21T08:20:41.710Z,1026.28
2019-04-21T08:30:30.174Z,1026.18
2019-04-21T08:36:50.758Z,1026.25
2019-04-21T08:40:55.676Z,1026.05
2019-04-21T08:44:25.468Z,1026.08
2019-04-21T08:54:55.056Z,1025.9
2019-04-21T09:10:02.656Z,1025.85
2019-04-21T09:13:22.302Z,1025.78
2019-04-21T09:18:53.546Z,1025.7
2019-04-21T09:23:44.460Z,1025.62
2019-04-21T09:28:51.620Z,1025.55
2019-04-21T09:33:09.533Z,1025.54
2019-04-21T09:38:15.867Z,1025.41
2019-04-21T09:42:06.779Z,1025.32
2019-04-21T09:43:19.049Z,1025.32
2019-04-21T09:47:12.566Z,1025.31
2019-04-21T09:52:31.065Z,1025.29
2019-04-21T09:57:11.779Z,1025.29
2019-04-21T10:02:22.746Z,1025.25
2019-04-21T10:07:07.248Z,1025.17
2019-04-21T10:12:08.082Z,1025.16
2019-04-21T10:16:07.961Z,1024.97
2019-04-21T10:21:07.640Z,1024.96
2019-04-21T10:26:08.389Z,1024.85
2019-04-21T10:31:07.205Z,1024.8
2019-04-21T10:36:07.193Z,1024.69
2019-04-21T10:41:07.677Z,1024.64
2019-04-21T10:46:08.624Z,1024.63
2019-04-21T10:50:08.630Z,1024.52
2019-04-21T10:55:44.265Z,1024.39
2019-04-21T11:00:14.365Z,1024.39
2019-04-21T11:05:06.882Z,1024.42
2019-04-21T11:10:10.231Z,1024.31
2019-04-21T11:15:07.860Z,1024.28
2019-04-21T11:20:07.024Z,1024.2
2019-04-21T11:24:08.048Z,1024.16
2019-04-21T11:29:07.971Z,1024.07
2019-04-21T11:34:07.221Z,1024.07
2019-04-21T11:39:45.458Z,1024.02
2019-04-21T11:44:07.658Z,1023.88
2019-04-21T11:49:06.362Z,1023.92
2019-04-21T11:54:08.709Z,1023.93
2019-04-21T11:58:09.800Z,1023.86
2019-04-21T12:03:06.422Z,1023.78
2019-04-21T12:08:34.915Z,1023.66
2019-04-21T12:13:07.437Z,1023.67
2019-04-21T12:18:09.929Z,1023.55
2019-04-21T12:22:26.485Z,1023.51
2019-04-21T12:23:07.156Z,1023.51
2019-04-21T12:27:08.185Z,1023.48
2019-04-21T12:32:09.472Z,1023.4
2019-04-21T12:37:08.518Z,1023.32
2019-04-21T12:42:07.161Z,1023.24
2019-04-21T12:47:08.342Z,1023.22
2019-04-21T12:52:07.108Z,1023.04
2019-04-21T12:57:08.033Z,1022.95
2019-04-21T13:01:07.528Z,1022.99
2019-04-21T13:06:07.975Z,1022.85
2019-04-21T13:11:12.839Z,1022.75
2019-04-21T13:16:09.437Z,1022.66
2019-04-21T13:21:07.919Z,1022.57
2019-04-21T13:26:11.367Z,1022.58
2019-04-21T13:31:06.528Z,1022.56
2019-04-21T13:35:06.974Z,1022.55
2019-04-21T13:41:04.758Z,1022.32
2019-04-21T13:45:08.250Z,1022.21
2019-04-21T13:50:07.029Z,1022.33
2019-04-21T13:55:07.664Z,1022.17
2019-04-21T14:00:11.252Z,1022.18
2019-04-21T14:05:14.156Z,1022.22
2019-04-21T14:09:07.369Z,1022.11
2019-04-21T14:14:06.131Z,1022.06
2019-04-21T14:19:07.562Z,1022.03
2019-04-21T14:24:08.713Z,1021.93
2019-04-21T14:29:09.825Z,1022
2019-04-21T14:34:09.938Z,1021.84
2019-04-21T14:39:10.799Z,1021.74
2019-04-21T14:43:10.043Z,1021.73
2019-04-21T14:48:09.131Z,1021.68
2019-04-21T14:53:10.169Z,1021.62
2019-04-21T14:58:07.726Z,1021.63
2019-04-21T15:03:08.201Z,1021.55
2019-04-21T15:08:07.271Z,1021.46
2019-04-21T15:13:07.631Z,1021.44
2019-04-21T15:17:07.454Z,1021.41
2019-04-21T15:22:08.147Z,1021.36
2019-04-21T15:27:07.539Z,1021.31
2019-04-21T15:32:06.898Z,1021.38
2019-04-21T15:37:06.523Z,1021.21
2019-04-21T15:42:06.301Z,1021.2
2019-04-21T15:47:06.134Z,1021.19
2019-04-21T15:52:07.601Z,1021.17
2019-04-21T15:56:07.011Z,1021.1
2019-04-21T16:01:07.617Z,1021.11
2019-04-21T16:06:09.596Z,1021.1
2019-04-21T16:11:11.642Z,1020.91
2019-04-21T16:16:08.811Z,1020.86
2019-04-21T16:21:08.717Z,1020.99
2019-04-21T16:25:08.504Z,1020.92
2019-04-21T16:30:08.357Z,1020.87
2019-04-21T16:35:12.907Z,1020.83
2019-04-21T16:40:07.847Z,1020.77
2019-04-21T16:45:07.735Z,1020.84
2019-04-21T16:50:08.100Z,1020.73
2019-04-21T16:55:06.909Z,1020.7
2019-04-21T16:59:06.806Z,1020.61
2019-04-21T17:04:08.367Z,1020.65
2019-04-21T17:09:09.393Z,1020.61
2019-04-21T17:14:41.130Z,1020.53
2019-04-21T17:19:24.023Z,1020.56
2019-04-21T17:24:08.209Z,1020.53
2019-04-21T17:29:07.229Z,1020.43
2019-04-21T17:33:20.836Z,1020.4
2019-04-21T17:38:08.123Z,1020.49
2019-04-21T17:43:15.870Z,1020.43
2019-04-21T17:48:16.196Z,1020.37
2019-04-21T17:53:14.091Z,1020.46
2019-04-21T17:58:14.694Z,1020.43
2019-04-21T18:03:37.333Z,1020.39
2019-04-21T18:07:59.708Z,1020.41
2019-04-21T18:12:39.424Z,1020.5
2019-04-21T18:17:08.602Z,1020.57
2019-04-21T18:22:10.688Z,1020.59
2019-04-21T18:27:13.524Z,1020.57
2019-04-21T18:32:08.704Z,1020.64
2019-04-21T18:36:06.994Z,1020.6
2019-04-21T18:41:07.591Z,1020.56
2019-04-21T18:46:58.149Z,1020.63
2019-04-21T18:51:22.026Z,1020.62
2019-04-21T18:56:13.664Z,1020.68
2019-04-21T19:01:28.129Z,1020.62
2019-04-21T19:06:16.582Z,1020.67
2019-04-21T19:11:51.657Z,1020.69
2019-04-21T19:16:41.119Z,1020.71
2019-04-21T19:20:48.505Z,1020.69
2019-04-21T19:25:46.026Z,1020.72
2019-04-21T19:30:55.854Z,1020.84
2019-04-21T19:35:10.787Z,1020.69
2019-04-21T19:40:45.629Z,1020.75
2019-04-21T19:45:33.745Z,1020.69
2019-04-21T19:54:37.800Z,1020.74
2019-04-21T19:59:18.387Z,1020.75
2019-04-21T20:04:06.285Z,1020.88
2019-04-21T20:09:44.741Z,1020.83
2019-04-21T20:19:15.622Z,1020.8
2019-04-21T20:23:21.817Z,1020.83
2019-04-21T20:28:48.759Z,1020.8
2019-04-21T20:38:30.961Z,1020.74
2019-04-21T20:43:45.444Z,1020.71
2019-04-21T20:48:30.494Z,1020.69
2019-04-21T20:53:40.726Z,1020.76
2019-04-21T20:57:53.626Z,1020.8
2019-04-21T21:02:45.777Z,1020.7
2019-04-21T21:07:55.596Z,1020.65
2019-04-21T21:18:55.825Z,1020.65
2019-04-21T21:22:55.718Z,1020.67
2019-04-21T21:27:51.626Z,1020.69
2019-04-21T21:31:24.203Z,1020.69
2019-04-21T21:36:19.139Z,1020.6
2019-04-21T21:41:16.125Z,1020.58
2019-04-21T21:51:32.978Z,1020.59
2019-04-21T21:56:08.882Z,1020.49
2019-04-21T22:01:08.290Z,1020.6
2019-04-21T22:06:23.849Z,1020.62
2019-04-21T22:10:08.813Z,1020.57
2019-04-21T22:15:19.497Z,1020.54
2019-04-21T22:20:26.943Z,1020.53
2019-04-21T22:25:12.523Z,1020.57
2019-04-21T22:30:11.297Z,1020.52
2019-04-21T22:35:23.374Z,1020.54
2019-04-21T22:40:30.947Z,1020.63
2019-04-21T22:44:06.823Z,1020.52
2019-04-21T22:49:12.624Z,1020.56
2019-04-21T22:54:06.182Z,1020.48
2019-04-21T22:59:09.509Z,1020.55
2019-04-21T23:04:07.118Z,1020.55
2019-04-21T23:09:08.673Z,1020.54
2019-04-21T23:14:08.077Z,1020.67
2019-04-21T23:19:23.541Z,1020.47
2019-04-21T23:23:49.450Z,1020.49
2019-04-21T23:28:50.279Z,1020.44
2019-04-21T23:33:15.481Z,1020.42
2019-04-21T23:38:10.904Z,1020.39
2019-04-21T23:43:11.017Z,1020.44
2019-04-21T23:48:18.175Z,1020.41
2019-04-21T23:53:07.697Z,1020.36
2019-04-21T23:58:23.689Z,1020.29
